Time;durP1;ratioP1;P1;durP2;ratioP2;P2;SDS_P1;SDS_P2;PMS_P1;PMS_P2;Temp;Humidity;BMP_temperature;BMP_pressure;BME280_temperature;BME280_humidity;BME280_pressure;Samples;Min_cycle;Max_cycle;Signal;HPM_P1;HPM_P2
2023/03/03 00:01:36;;;;;;;0.40;0.40;;;;;;;3.37;69.54;102655.84;5073223;28;20029;-82
2023/03/03 00:04:03;;;;;;;0.10;0.10;;;;;;;3.35;69.61;102652.28;5072503;28;20021;-83
2023/03/03 00:06:29;;;;;;;0.30;0.30;;;;;;;3.33;69.59;102660.06;5075539;28;20031;-82
2023/03/03 00:08:55;;;;;;;0.20;0.20;;;;;;;3.33;70.14;102661.81;5074562;28;20396;-82
2023/03/03 00:11:22;;;;;;;0.20;0.20;;;;;;;3.31;69.99;102660.84;5074183;28;20021;-84
2023/03/03 00:13:52;;;;;;;0.15;0.15;;;;;;;3.31;70.04;102660.84;5072322;28;20036;-81
2023/03/03 00:16:28;;;;;;;0.20;0.20;;;;;;;3.31;70.10;102661.72;5076428;28;20025;-82
2023/03/03 00:18:55;;;;;;;0.10;0.10;;;;;;;3.24;69.74;102660.59;5074182;28;20021;-83
2023/03/03 00:29:29;;;;;;;0.20;0.20;;;;;;;3.10;71.08;102666.13;5097336;27;1177078;-83
2023/03/03 00:34:55;;;;;;;0.20;0.20;;;;;;;3.30;71.17;102669.53;5055372;28;20410;-83
2023/03/03 00:37:31;;;;;;;0.10;0.10;;;;;;;3.35;70.83;102668.00;5051089;28;20075;-82
2023/03/03 00:40:15;;;;;;;0.10;0.10;;;;;;;3.35;70.84;102668.00;5051646;28;20029;-83
2023/03/03 00:42:45;;;;;;;0.55;0.55;;;;;;;3.36;71.29;102665.44;5050268;28;20025;-82
2023/03/03 00:50:58;;;;;;;0.10;0.10;;;;;;;3.40;71.54;102669.06;5031004;27;20398;-81
2023/03/03 00:53:27;;;;;;;0.30;0.30;;;;;;;3.42;71.88;102664.78;5041793;27;20138;-82
2023/03/03 00:55:53;;;;;;;0.30;0.30;;;;;;;3.42;72.97;102663.91;5033785;28;20053;-82
2023/03/03 00:58:21;;;;;;;0.10;0.10;;;;;;;3.46;73.26;102666.69;5031316;28;20078;-82
2023/03/03 01:00:49;;;;;;;1.05;1.05;;;;;;;3.52;73.38;102671.28;5041073;28;20018;-82
2023/03/03 01:03:19;;;;;;;0.10;0.10;;;;;;;3.55;73.37;102672.28;5029670;28;20026;-83
2023/03/03 01:05:45;;;;;;;0.17;0.17;;;;;;;3.59;73.25;102675.94;5031996;28;20513;-83
2023/03/03 01:08:11;;;;;;;0.10;0.10;;;;;;;3.63;73.38;102675.19;5030913;28;20074;-82
2023/03/03 01:10:44;;;;;;;0.17;0.17;;;;;;;3.67;73.15;102674.47;5027359;28;20033;-82
2023/03/03 01:13:11;;;;;;;0.10;0.10;;;;;;;3.67;72.76;102665.72;5026934;28;20428;-83
2023/03/03 01:15:39;;;;;;;0.47;0.47;;;;;;;3.69;72.64;102667.56;5025856;28;20032;-81
2023/03/03 01:18:05;;;;;;;0.10;0.10;;;;;;;3.70;72.66;102671.06;5030905;28;20030;-81
2023/03/03 01:20:32;;;;;;;1.08;1.08;;;;;;;3.69;73.67;102669.31;5052952;28;20045;-82
2023/03/03 01:22:58;;;;;;;0.65;0.65;;;;;;;3.71;73.49;102671.16;5044755;28;20077;-84
2023/03/03 01:25:24;;;;;;;0.28;0.28;;;;;;;3.72;73.51;102674.66;5026234;28;20052;-81
2023/03/03 01:27:50;;;;;;;0.20;0.20;;;;;;;3.72;73.95;102667.66;5027596;28;20030;-83
2023/03/03 01:30:16;;;;;;;0.13;0.13;;;;;;;3.76;73.73;102671.31;5028260;28;20026;-83
2023/03/03 01:32:42;;;;;;;0.10;0.10;;;;;;;3.75;73.48;102669.53;5031087;28;20083;-82
2023/03/03 01:35:09;;;;;;;0.10;0.10;;;;;;;3.77;73.50;102667.84;5029913;28;20040;-82
2023/03/03 01:37:35;;;;;;;0.10;0.10;;;;;;;3.77;73.56;102667.84;5028949;28;20028;-83
2023/03/03 01:40:03;;;;;;;0.10;0.10;;;;;;;3.75;73.03;102661.69;5030280;28;20026;-82
2023/03/03 01:42:30;;;;;;;0.10;0.10;;;;;;;3.75;73.62;102669.53;5026388;28;20060;-83
2023/03/03 01:45:20;;;;;;;0.20;0.20;;;;;;;3.82;73.68;102666.28;5031690;28;20025;-83
2023/03/03 01:47:58;;;;;;;0.10;0.10;;;;;;;3.79;73.13;102666.19;5041624;28;20556;-82
2023/03/03 01:53:15;;;;;;;0.10;0.10;;;;;;;3.74;73.35;102670.38;5117421;27;20380;-83
2023/03/03 01:55:42;;;;;;;0.90;0.90;;;;;;;3.65;73.33;102673.53;5096151;28;20422;-82
2023/03/03 01:58:17;;;;;;;0.17;0.17;;;;;;;3.69;73.52;102669.31;5094079;28;20028;-83
2023/03/03 02:00:49;;;;;;;0.15;0.15;;;;;;;3.67;73.28;102669.22;5093135;28;20062;-84
2023/03/03 02:03:15;;;;;;;0.20;0.20;;;;;;;3.65;73.06;102680.50;5087936;28;20579;-84
2023/03/03 02:05:42;;;;;;;0.95;0.75;;;;;;;3.62;73.43;102672.53;5095129;28;20020;-83
2023/03/03 02:08:13;;;;;;;0.10;0.10;;;;;;;3.58;73.21;102666.28;5091342;28;20028;-84
2023/03/03 02:10:40;;;;;;;0.20;0.20;;;;;;;3.55;72.86;102671.38;5092571;28;20028;-82
2023/03/03 02:13:06;;;;;;;0.10;0.10;;;;;;;3.50;72.70;102668.59;5092852;28;20033;-82
2023/03/03 02:15:35;;;;;;;0.10;0.10;;;;;;;3.48;73.63;102665.03;5089504;28;20046;-82
2023/03/03 02:18:19;;;;;;;0.10;0.10;;;;;;;3.54;72.80;102675.75;5093121;28;20133;-84
2023/03/03 02:28:45;;;;;;;0.10;0.10;;;;;;;3.38;72.58;102678.63;5069874;27;20389;-84
2023/03/03 02:31:16;;;;;;;0.20;0.20;;;;;;;3.37;72.59;102674.19;5063897;28;20088;-84
2023/03/03 02:33:45;;;;;;;0.20;0.20;;;;;;;3.34;72.20;102674.97;5063836;28;20150;-84
2023/03/03 02:36:14;;;;;;;0.20;0.20;;;;;;;3.33;72.92;102677.53;5059008;28;20025;-84
2023/03/03 02:41:29;;;;;;;0.20;0.20;;;;;;;3.30;72.30;102674.78;5110086;27;20399;-82
2023/03/03 02:44:00;;;;;;;0.10;0.10;;;;;;;3.22;72.15;102672.75;5105756;28;20031;-83
2023/03/03 02:46:27;;;;;;;0.10;0.10;;;;;;;3.16;72.34;102675.13;5092797;28;20028;-82
2023/03/03 02:48:53;;;;;;;0.20;0.20;;;;;;;3.12;71.71;102673.22;5091813;28;20024;-82
2023/03/03 02:51:20;;;;;;;0.20;0.20;;;;;;;3.07;72.28;102672.16;5093666;28;20025;-82
2023/03/03 02:53:46;;;;;;;0.10;0.10;;;;;;;3.03;72.32;102675.47;5092869;28;20074;-81
2023/03/03 02:56:12;;;;;;;0.40;0.40;;;;;;;2.98;71.81;102669.13;5099954;28;20046;-82
2023/03/03 02:58:38;;;;;;;0.20;0.20;;;;;;;2.92;72.05;102675.91;5102755;28;20078;-82
2023/03/03 03:01:04;;;;;;;2.17;1.35;;;;;;;2.89;72.04;102681.03;5103905;28;20035;-81
2023/03/03 03:03:31;;;;;;;0.10;0.10;;;;;;;2.88;71.94;102680.97;5099980;28;20028;-82
2023/03/03 03:05:57;;;;;;;0.20;0.20;;;;;;;2.88;72.46;102678.38;5094034;28;20028;-83
2023/03/03 03:08:23;;;;;;;0.50;0.50;;;;;;;2.89;72.13;102683.66;5079764;28;20078;-83
2023/03/03 03:10:50;;;;;;;0.20;0.20;;;;;;;2.94;72.15;102677.69;5087040;28;20020;-83
2023/03/03 03:13:16;;;;;;;0.10;0.10;;;;;;;3.00;72.14;102672.72;5092309;28;20024;-82
2023/03/03 03:15:45;;;;;;;0.10;0.10;;;;;;;3.08;72.31;102676.56;5092028;28;20032;-82
2023/03/03 03:18:12;;;;;;;0.20;0.20;;;;;;;3.14;72.42;102679.41;5091576;28;20422;-84
2023/03/03 03:20:39;;;;;;;0.25;0.25;;;;;;;3.21;72.77;102684.06;5092201;28;20028;-83
2023/03/03 03:23:05;;;;;;;0.20;0.20;;;;;;;3.28;72.33;102681.69;5092329;28;20058;-83
2023/03/03 03:25:32;;;;;;;0.17;0.17;;;;;;;3.31;73.03;102676.56;5094055;28;20036;-82
2023/03/03 03:27:58;;;;;;;0.28;0.28;;;;;;;3.40;72.89;102682.16;5094235;28;20548;-83
2023/03/03 03:30:24;;;;;;;0.10;0.10;;;;;;;3.44;72.89;102680.56;5092154;28;20033;-83
2023/03/03 03:32:50;;;;;;;0.10;0.10;;;;;;;3.48;72.50;102678.13;5092056;28;20069;-84
2023/03/03 03:35:16;;;;;;;0.10;0.10;;;;;;;3.53;73.03;102684.44;5091170;28;20387;-83
2023/03/03 03:37:43;;;;;;;0.20;0.20;;;;;;;3.60;72.41;102684.69;5091901;28;20028;-83
2023/03/03 03:40:11;;;;;;;0.10;0.10;;;;;;;3.66;72.88;102680.53;5091976;28;20071;-84
2023/03/03 03:42:38;;;;;;;0.10;0.10;;;;;;;3.70;73.05;102686.81;5091515;28;20029;-83
2023/03/03 03:45:05;;;;;;;2.20;1.15;;;;;;;3.75;72.91;102687.91;5091143;28;20161;-85
2023/03/03 03:47:31;;;;;;;0.10;0.10;;;;;;;3.76;72.36;102679.16;5092389;28;20407;-84
2023/03/03 03:49:57;;;;;;;0.10;0.10;;;;;;;3.76;72.46;102679.16;5092253;28;20027;-84
2023/03/03 03:52:23;;;;;;;0.15;0.15;;;;;;;3.80;72.40;102677.56;5080115;28;20090;-83
2023/03/03 03:54:49;;;;;;;0.20;0.20;;;;;;;3.84;72.63;102679.50;5077918;28;20099;-82
2023/03/03 03:57:15;;;;;;;0.20;0.20;;;;;;;3.87;72.91;102685.72;5078384;28;20407;-83
2023/03/03 03:59:41;;;;;;;0.85;0.85;;;;;;;3.91;72.83;102685.84;5079009;28;20502;-84
2023/03/03 04:02:07;;;;;;;0.10;0.10;;;;;;;3.95;72.69;102690.34;5078508;28;20052;-84
2023/03/03 04:04:34;;;;;;;0.10;0.10;;;;;;;3.96;72.67;102693.06;5078260;28;20514;-84
2023/03/03 04:07:00;;;;;;;0.10;0.10;;;;;;;3.99;72.81;102687.03;5079657;28;20024;-84
2023/03/03 04:09:27;;;;;;;0.10;0.10;;;;;;;4.02;72.37;102684.50;5078714;28;20056;-84
2023/03/03 04:11:53;;;;;;;0.10;0.10;;;;;;;4.04;72.14;102693.34;5078695;28;20024;-82
2023/03/03 04:14:19;;;;;;;0.20;0.20;;;;;;;4.06;72.25;102704.75;5078749;28;20093;-82
2023/03/03 04:16:45;;;;;;;0.25;0.25;;;;;;;4.06;72.24;102704.75;5077135;28;20403;-81
2023/03/03 04:19:11;;;;;;;0.10;0.10;;;;;;;4.09;72.50;102702.25;5075727;28;20377;-82
2023/03/03 04:21:37;;;;;;;0.10;0.10;;;;;;;4.09;72.14;102697.00;5076238;28;20109;-82
2023/03/03 04:24:03;;;;;;;0.10;0.10;;;;;;;4.08;72.13;102710.97;5075138;28;20029;-81
2023/03/03 04:26:30;;;;;;;0.10;0.10;;;;;;;4.10;71.77;102705.75;5075889;28;20482;-83
2023/03/03 04:28:57;;;;;;;0.10;0.10;;;;;;;4.11;72.49;102700.59;5074690;28;20108;-80
2023/03/03 04:31:24;;;;;;;0.10;0.10;;;;;;;4.12;72.65;102704.97;5074919;28;20078;-81
2023/03/03 04:33:51;;;;;;;0.10;0.10;;;;;;;4.16;72.13;102704.28;5074269;28;20028;-82
2023/03/03 04:36:17;;;;;;;0.10;0.10;;;;;;;4.19;72.44;102700.88;5074636;28;20035;-83
2023/03/03 04:38:43;;;;;;;0.10;0.10;;;;;;;4.23;72.31;102704.50;5075835;28;20158;-82
2023/03/03 04:41:09;;;;;;;1.92;1.75;;;;;;;4.25;72.37;102708.06;5075299;28;20407;-82
2023/03/03 04:43:36;;;;;;;0.10;0.10;;;;;;;4.25;72.23;102702.81;5075541;28;20033;-83
2023/03/03 04:46:02;;;;;;;0.20;0.20;;;;;;;4.27;72.38;102703.75;5075366;28;20404;-83
2023/03/03 04:48:28;;;;;;;0.20;0.20;;;;;;;4.28;72.41;102703.81;5075892;28;20492;-82
2023/03/03 04:50:54;;;;;;;0.10;0.10;;;;;;;4.29;72.48;102705.59;5075725;28;20025;-84
2023/03/03 04:53:21;;;;;;;0.10;0.10;;;;;;;4.32;72.03;102710.06;5075461;28;20029;-84
2023/03/03 04:55:50;;;;;;;0.10;0.10;;;;;;;4.34;72.63;102708.41;5077617;28;20082;-82
2023/03/03 04:58:18;;;;;;;0.10;0.10;;;;;;;4.32;72.16;102705.69;5079439;28;20083;-82
2023/03/03 05:00:46;;;;;;;1.08;1.08;;;;;;;4.34;72.37;102713.66;5076154;28;20047;-81
2023/03/03 05:03:12;;;;;;;0.10;0.10;;;;;;;4.37;72.42;102713.75;5074500;28;20453;-82
2023/03/03 05:05:39;;;;;;;0.10;0.10;;;;;;;4.41;72.04;102709.50;5074791;28;20036;-82
2023/03/03 05:08:05;;;;;;;0.10;0.10;;;;;;;4.44;72.31;102710.50;5075279;28;20396;-82
2023/03/03 05:10:31;;;;;;;0.20;0.20;;;;;;;4.43;72.17;102713.09;5075897;28;20028;-83
2023/03/03 05:12:57;;;;;;;2.05;1.95;;;;;;;4.45;72.37;102712.28;5075030;28;20028;-84
2023/03/03 05:15:23;;;;;;;0.10;0.10;;;;;;;4.45;72.34;102717.53;5074680;28;20039;-82
2023/03/03 05:17:52;;;;;;;0.10;0.10;;;;;;;4.43;72.04;102708.72;5074985;28;20154;-83
2023/03/03 05:20:18;;;;;;;0.10;0.10;;;;;;;4.42;72.34;102711.28;5074598;28;20025;-83
2023/03/03 05:22:44;;;;;;;0.35;0.35;;;;;;;4.42;72.29;102712.16;5076549;28;20424;-82
2023/03/03 05:25:11;;;;;;;0.10;0.10;;;;;;;4.37;71.99;102716.38;5074757;28;20441;-82
2023/03/03 05:27:37;;;;;;;3.20;1.65;;;;;;;4.39;72.06;102717.31;5076277;28;20013;-83
2023/03/03 05:30:04;;;;;;;0.10;0.10;;;;;;;4.40;72.19;102724.38;5077463;28;20507;-83
2023/03/03 05:32:31;;;;;;;1.20;1.20;;;;;;;4.40;71.88;102711.25;5077497;28;20048;-82
2023/03/03 05:34:57;;;;;;;0.98;0.85;;;;;;;4.40;72.13;102713.88;5075718;28;20012;-83
2023/03/03 05:37:23;;;;;;;0.10;0.10;;;;;;;4.42;71.79;102717.41;5076745;28;20040;-83
2023/03/03 05:39:50;;;;;;;1.08;1.08;;;;;;;4.42;72.29;102717.41;5077975;28;20090;-83
2023/03/03 05:42:16;;;;;;;0.50;0.50;;;;;;;4.45;71.65;102716.63;5077565;28;20085;-84
2023/03/03 05:44:42;;;;;;;0.10;0.10;;;;;;;4.45;71.95;102709.69;5075492;28;20028;-84
2023/03/03 05:47:08;;;;;;;0.10;0.10;;;;;;;4.43;72.14;102723.59;5076569;28;20032;-84
2023/03/03 05:49:34;;;;;;;0.20;0.20;;;;;;;4.45;72.18;102714.91;5076986;28;20063;-83
2023/03/03 05:52:01;;;;;;;0.15;0.15;;;;;;;4.48;72.21;102717.63;5075949;28;20074;-83
2023/03/03 05:54:27;;;;;;;0.10;0.10;;;;;;;4.45;72.40;102714.91;5076240;28;20032;-83
2023/03/03 05:56:53;;;;;;;0.25;0.25;;;;;;;4.47;72.19;102714.97;5075791;28;20058;-84
2023/03/03 05:59:19;;;;;;;0.20;0.20;;;;;;;4.51;71.80;102723.03;5074936;28;20020;-84
2023/03/03 06:01:45;;;;;;;0.10;0.10;;;;;;;4.52;71.92;102719.56;5075462;28;20094;-84
2023/03/03 06:04:12;;;;;;;0.10;0.10;;;;;;;4.53;71.92;102721.31;5074918;28;20431;-84
2023/03/03 06:06:38;;;;;;;0.10;0.10;;;;;;;4.57;71.81;102710.94;5076720;28;20026;-84
2023/03/03 06:09:04;;;;;;;0.20;0.20;;;;;;;4.57;71.64;102717.06;5076657;28;20101;-84
2023/03/03 06:11:30;;;;;;;0.10;0.10;;;;;;;4.59;71.81;102718.03;5077059;28;20040;-84
2023/03/03 06:13:56;;;;;;;0.10;0.10;;;;;;;4.62;72.24;102725.13;5074881;28;20024;-84
2023/03/03 06:16:22;;;;;;;0.20;0.20;;;;;;;4.65;72.10;102720.00;5075681;28;20024;-84
2023/03/03 06:18:48;;;;;;;0.15;0.15;;;;;;;4.65;72.06;102720.00;5075548;28;20107;-83
2023/03/03 06:21:14;;;;;;;0.20;0.20;;;;;;;4.68;71.95;102725.34;5077137;28;20032;-83
2023/03/03 06:23:40;;;;;;;0.43;0.43;;;;;;;4.70;71.83;102734.16;5076514;28;20384;-83
2023/03/03 06:26:07;;;;;;;0.10;0.10;;;;;;;4.68;72.18;102734.09;5076012;28;20083;-85
2023/03/03 06:28:33;;;;;;;0.10;0.10;;;;;;;4.66;71.78;102727.91;5077507;28;20032;-82
2023/03/03 06:30:59;;;;;;;0.10;0.10;;;;;;;4.64;71.51;102734.84;5075143;28;20024;-82
2023/03/03 06:33:25;;;;;;;0.20;0.20;;;;;;;4.61;71.67;102736.44;5074243;28;20035;-82
2023/03/03 06:35:53;;;;;;;0.68;0.68;;;;;;;4.60;71.67;102740.81;5073736;28;20094;-82
2023/03/03 06:38:19;;;;;;;0.10;0.10;;;;;;;4.61;71.69;102749.59;5074311;28;20043;-83
2023/03/03 06:40:46;;;;;;;0.10;0.10;;;;;;;4.59;71.42;102746.03;5074860;28;20046;-83
2023/03/03 06:43:13;;;;;;;0.10;0.10;;;;;;;4.57;71.78;102752.94;5075660;28;20037;-83
2023/03/03 06:45:39;;;;;;;0.10;0.10;;;;;;;4.57;71.86;102753.81;5075613;28;20028;-83
2023/03/03 06:48:05;;;;;;;0.10;0.10;;;;;;;4.57;71.82;102759.06;5076408;28;20028;-82
2023/03/03 06:50:31;;;;;;;0.45;0.45;;;;;;;4.60;71.90;102758.28;5078951;28;20395;-81
2023/03/03 06:53:07;;;;;;;0.10;0.10;;;;;;;4.64;71.87;102761.09;5077223;28;20025;-82
2023/03/03 06:55:33;;;;;;;0.22;0.22;;;;;;;4.62;72.33;102761.88;5076801;28;20040;-83
2023/03/03 06:57:59;;;;;;;0.10;0.10;;;;;;;4.65;72.22;102764.63;5076608;28;20036;-83
2023/03/03 07:00:27;;;;;;;0.10;0.10;;;;;;;4.67;72.04;102769.09;5075314;28;20016;-83
2023/03/03 07:03:00;;;;;;;0.10;0.10;;;;;;;4.73;71.83;102764.88;5075073;28;20040;-84
2023/03/03 07:05:28;;;;;;;0.10;0.10;;;;;;;4.74;72.32;102766.69;5075061;28;20025;-83
2023/03/03 07:07:55;;;;;;;0.35;0.35;;;;;;;4.78;72.06;102768.56;5075575;28;20037;-84
2023/03/03 07:10:25;;;;;;;0.10;0.10;;;;;;;4.78;72.27;102769.44;5075392;28;20048;-84
2023/03/03 07:12:52;;;;;;;0.08;0.08;;;;;;;4.84;71.93;102774.91;5075755;28;20024;-84
2023/03/03 07:15:26;;;;;;;0.10;0.10;;;;;;;4.90;72.22;102775.97;5075570;28;20020;-83
2023/03/03 07:17:58;;;;;;;0.45;0.45;;;;;;;4.92;72.04;102776.91;5076603;28;20039;-83
2023/03/03 07:20:35;;;;;;;0.10;0.10;;;;;;;4.95;72.41;102782.28;5075789;28;20368;-84
2023/03/03 07:23:26;;;;;;;3.38;2.42;;;;;;;4.98;72.48;102790.25;5075563;28;20088;-84
2023/03/03 07:25:53;;;;;;;0.20;0.20;;;;;;;4.96;71.87;102781.44;5075899;28;20021;-83
2023/03/03 07:31:15;;;;;;;0.10;0.10;;;;;;;5.00;72.23;102788.59;5116623;27;20383;-84
2023/03/03 07:33:45;;;;;;;0.35;0.35;;;;;;;5.05;72.16;102794.91;5127383;28;20036;-82
2023/03/03 07:36:30;;;;;;;0.35;0.35;;;;;;;5.15;72.07;102796.09;5117283;28;20052;-85
2023/03/03 07:39:00;;;;;;;0.10;0.10;;;;;;;5.14;71.95;102795.19;5116447;28;20394;-85
2023/03/03 07:41:27;;;;;;;0.20;0.20;;;;;;;5.12;71.88;102796.91;5115712;28;20023;-84
2023/03/03 07:44:04;;;;;;;0.10;0.10;;;;;;;5.13;71.71;102798.66;5114047;28;20039;-84
2023/03/03 07:46:51;;;;;;;0.10;0.10;;;;;;;5.23;71.93;102804.25;5113988;28;20019;-83
2023/03/03 07:51:56;;;;;;;0.10;0.10;;;;;;;5.26;71.83;102804.34;5115733;27;20159;-85
2023/03/03 07:57:17;;;;;;;0.15;0.15;;;;;;;5.38;71.56;102810.00;5113428;27;20339;-84
2023/03/03 08:02:39;;;;;;;0.10;0.10;;;;;;;5.43;71.88;102813.72;5129859;27;20369;-84
2023/03/03 08:05:39;;;;;;;0.40;0.40;;;;;;;5.46;71.78;102811.16;5113790;28;20030;-84
2023/03/03 08:08:35;;;;;;;0.10;0.10;;;;;;;5.48;71.77;102817.38;5101815;28;20042;-82
2023/03/03 08:11:02;;;;;;;0.17;0.17;;;;;;;5.49;71.94;102819.13;5114038;28;20231;-82
2023/03/03 08:18:47;;;;;;;0.57;0.57;;;;;;;5.67;71.82;102831.13;5119568;27;1183466;-84
2023/03/03 08:21:20;;;;;;;0.20;0.20;;;;;;;5.74;71.66;102830.44;5135344;28;20031;-83
2023/03/03 08:23:48;;;;;;;0.10;0.10;;;;;;;5.79;71.94;102828.84;5125221;27;20473;-86
2023/03/03 08:26:15;;;;;;;0.20;0.20;;;;;;;5.86;72.00;102829.06;5115570;28;20016;-85
2023/03/03 08:28:41;;;;;;;0.20;0.20;;;;;;;5.96;71.85;102839.03;5115358;28;20107;-85
2023/03/03 08:31:08;;;;;;;0.10;0.10;;;;;;;6.02;71.73;102843.63;5115600;28;20028;-87
2023/03/03 08:33:34;;;;;;;0.10;0.10;;;;;;;6.06;71.54;102842.91;5115103;28;20024;-85
2023/03/03 08:36:00;;;;;;;0.57;0.57;;;;;;;6.10;71.38;102844.75;5116591;28;20027;-84
2023/03/03 08:38:27;;;;;;;0.10;0.10;;;;;;;6.14;71.45;102842.28;5116238;28;20558;-85
2023/03/03 08:40:53;;;;;;;0.57;0.30;;;;;;;6.21;71.07;102840.72;5102991;28;20119;-85
2023/03/03 08:43:21;;;;;;;0.10;0.10;;;;;;;6.23;71.10;102844.31;5117734;28;20028;-85
2023/03/03 08:45:50;;;;;;;0.10;0.10;;;;;;;6.28;71.01;102840.06;5116891;28;20027;-85
2023/03/03 08:48:21;;;;;;;1.75;1.42;;;;;;;6.35;70.95;102838.50;5116313;28;20012;-86
2023/03/03 08:50:47;;;;;;;0.28;0.28;;;;;;;6.40;71.00;102844.78;5116810;28;20024;-85
2023/03/03 08:53:14;;;;;;;0.10;0.10;;;;;;;6.51;71.14;102847.75;5097339;28;20090;-85
2023/03/03 08:55:41;;;;;;;0.40;0.40;;;;;;;6.53;70.38;102840.78;5102009;28;20370;-85
2023/03/03 08:58:07;;;;;;;0.10;0.10;;;;;;;6.57;70.32;102854.94;5110833;28;20016;-84
2023/03/03 09:00:34;;;;;;;0.17;0.17;;;;;;;6.63;70.20;102855.13;5112264;28;20036;-84
2023/03/03 09:03:01;;;;;;;0.10;0.10;;;;;;;6.69;70.05;102857.00;5099715;28;20056;-83
2023/03/03 09:05:27;;;;;;;0.10;0.10;;;;;;;6.72;69.82;102850.09;5095902;28;20482;-84
2023/03/03 09:07:54;;;;;;;0.55;0.55;;;;;;;6.78;69.89;102858.19;5090458;28;20087;-85
2023/03/03 09:10:29;;;;;;;0.10;0.10;;;;;;;6.88;69.59;102858.41;5098750;28;20367;-83
2023/03/03 09:12:57;;;;;;;0.10;0.10;;;;;;;6.98;69.67;102855.22;5091397;28;20086;-85
2023/03/03 09:15:30;;;;;;;0.10;0.10;;;;;;;7.11;69.71;102852.03;5099886;28;20498;-85
2023/03/03 09:18:09;;;;;;;0.20;0.20;;;;;;;7.10;69.22;102860.81;5093210;28;20058;-86
2023/03/03 09:20:43;;;;;;;0.43;0.43;;;;;;;7.20;69.40;102855.78;5095552;28;20489;-86
2023/03/03 09:23:38;;;;;;;0.17;0.17;;;;;;;7.37;69.58;102854.47;5093051;28;20028;-85
2023/03/03 09:28:47;;;;;;;0.10;0.10;;;;;;;7.57;68.78;102856.72;5074670;28;20402;-85
2023/03/03 09:31:41;;;;;;;0.28;0.28;;;;;;;7.71;68.67;102850.06;5074901;28;20060;-84
2023/03/03 09:37:22;;;;;;;0.20;0.20;;;;;;;7.73;66.53;102853.59;5109000;27;1169215;-83
2023/03/03 09:39:52;;;;;;;0.10;0.10;;;;;;;7.65;67.28;102846.34;5120649;28;20288;-84
2023/03/03 09:42:59;;;;;;;0.10;0.10;;;;;;;7.60;67.13;102848.88;5134141;27;20443;-85
2023/03/03 09:54:03;;;;;;;0.10;0.10;;;;;;;7.31;66.88;102858.69;5098303;27;20882;-84
2023/03/03 10:11:10;;;;;;;0.20;0.20;;;;;;;8.19;66.15;102848.50;5059495;28;20411;-84
2023/03/03 10:24:54;;;;;;;0.10;0.10;;;;;;;8.71;65.02;102846.09;5094906;27;20384;-83
2023/03/03 10:30:23;;;;;;;3.63;1.02;;;;;;;9.09;64.61;102844.16;5084303;27;1870388;-86
2023/03/03 10:32:59;;;;;;;0.10;0.10;;;;;;;9.16;63.86;102846.94;5126614;27;20050;-85
2023/03/03 10:35:38;;;;;;;0.20;0.20;;;;;;;9.25;63.77;102835.63;5134286;28;20023;-85
2023/03/03 10:38:22;;;;;;;0.15;0.15;;;;;;;9.30;62.66;102844.53;5119582;28;20045;-85
2023/03/03 10:41:12;;;;;;;0.20;0.20;;;;;;;9.43;62.38;102844.75;5133288;28;20031;-85
2023/03/03 10:46:37;;;;;;;0.10;0.10;;;;;;;9.44;62.21;102846.53;5073152;27;1862136;-84
2023/03/03 10:49:17;;;;;;;0.20;0.20;;;;;;;9.49;62.06;102847.50;5111524;28;20054;-83
2023/03/03 10:54:57;;;;;;;0.10;0.10;;;;;;;9.57;62.07;102851.19;5111046;27;20373;-82
2023/03/03 10:57:46;;;;;;;0.10;0.10;;;;;;;9.57;60.82;102844.97;5111847;28;20039;-84
2023/03/03 11:00:51;;;;;;;0.13;0.13;;;;;;;9.61;61.35;102850.34;5109970;28;20027;-83
2023/03/03 11:03:57;;;;;;;0.10;0.10;;;;;;;9.65;62.03;102838.94;5096901;28;20024;-84
2023/03/03 11:15:17;;;;;;;0.10;0.10;;;;;;;10.31;60.54;102838.13;5155285;27;20346;-82
2023/03/03 11:18:12;;;;;;;0.10;0.10;;;;;;;10.32;58.63;102837.28;5123267;28;20498;-82
2023/03/03 11:21:02;;;;;;;0.10;0.10;;;;;;;10.35;60.94;102835.56;5132519;27;20039;-83
2023/03/03 11:23:57;;;;;;;0.10;0.10;;;;;;;10.40;58.83;102848.00;5130775;27;20054;-83
2023/03/03 11:29:39;;;;;;;0.13;0.13;;;;;;;10.52;59.14;102832.25;5110526;27;20053;-82
2023/03/03 11:32:21;;;;;;;0.10;0.10;;;;;;;10.62;58.50;102833.25;5111112;28;20050;-82
2023/03/03 11:34:56;;;;;;;0.10;0.10;;;;;;;10.59;58.09;102828.81;5103549;28;20023;-81
2023/03/03 11:38:02;;;;;;;0.10;0.10;;;;;;;10.59;57.88;102842.06;5090412;28;20605;-82
2023/03/03 11:40:40;;;;;;;0.10;0.10;;;;;;;10.51;57.39;102836.66;5090525;28;20044;-83
2023/03/03 11:46:11;;;;;;;0.10;0.10;;;;;;;10.61;57.65;102827.03;5090244;28;20332;-84
2023/03/03 11:49:01;;;;;;;0.10;0.10;;;;;;;10.63;57.83;102827.97;5093631;28;20226;-84
2023/03/03 11:54:16;;;;;;;0.10;0.10;;;;;;;10.78;57.66;102823.69;5115863;27;20392;-83
2023/03/03 11:56:44;;;;;;;0.10;0.10;;;;;;;10.97;57.11;102820.38;5115894;28;20039;-84
2023/03/03 12:01:56;;;;;;;0.20;0.20;;;;;;;11.33;56.07;102813.63;5075295;28;20403;-85
2023/03/03 12:10:41;;;;;;;0.10;0.10;;;;;;;11.52;53.79;102797.84;5076648;27;20419;-85
2023/03/03 12:13:33;;;;;;;0.10;0.10;;;;;;;11.76;51.46;102796.25;5061279;28;20064;-84
2023/03/03 12:19:31;;;;;;;0.10;0.10;;;;;;;12.11;50.01;102800.88;5074612;28;20422;-82
2023/03/03 12:33:06;;;;;;;0.10;0.10;;;;;;;12.66;49.26;102780.72;4958525;27;5722307;-83
2023/03/03 12:41:57;;;;;;;0.10;0.10;;;;;;;13.13;47.15;102774.56;5165620;27;20043;-86
2023/03/03 12:44:58;;;;;;;0.10;0.10;;;;;;;13.30;47.30;102774.56;5163800;27;20071;-85
2023/03/03 12:58:51;;;;;;;0.10;0.10;;;;;;;12.61;47.97;102778.03;5056712;27;20373;-82
2023/03/03 13:01:51;;;;;;;0.10;0.10;;;;;;;12.45;47.89;102772.69;5046365;28;20030;-84
2023/03/03 13:07:19;;;;;;;0.10;0.10;;;;;;;12.20;48.35;102778.78;5102334;27;1169526;-84
2023/03/03 13:12:37;;;;;;;0.10;0.10;;;;;;;12.07;48.74;102775.19;5111579;27;20374;-84
2023/03/03 13:15:19;;;;;;;0.20;0.20;;;;;;;11.91;49.55;102768.88;5108353;28;20123;-86
2023/03/03 13:17:58;;;;;;;0.10;0.10;;;;;;;11.76;49.66;102765.28;5092942;28;20027;-83
2023/03/03 13:20:43;;;;;;;0.10;0.10;;;;;;;11.86;48.87;102767.97;5098582;28;20032;-85
2023/03/03 13:23:30;;;;;;;3.00;2.30;;;;;;;12.09;50.00;102762.81;5111444;28;20131;-84
2023/03/03 13:28:41;;;;;;;0.10;0.10;;;;;;;12.64;47.81;102761.22;5052841;28;20417;-84
2023/03/03 13:31:18;;;;;;;4.32;1.10;;;;;;;12.84;47.56;102754.16;5050509;28;20033;-84
2023/03/03 13:33:54;;;;;;;0.10;0.10;;;;;;;12.87;45.49;102750.59;5049625;28;20117;-85
2023/03/03 13:36:23;;;;;;;0.20;0.20;;;;;;;12.79;46.53;102755.91;5054265;28;20524;-84
2023/03/03 13:38:59;;;;;;;0.10;0.10;;;;;;;12.74;45.57;102747.06;5054231;28;20020;-82
2023/03/03 13:41:31;;;;;;;0.10;0.10;;;;;;;12.76;47.39;102750.59;5060713;28;20111;-82
2023/03/03 13:44:19;;;;;;;0.10;0.10;;;;;;;12.77;46.61;102753.28;5057686;28;20029;-82
2023/03/03 13:47:14;;;;;;;0.10;0.10;;;;;;;12.82;45.08;102749.72;5061649;28;20030;-82
2023/03/03 13:52:27;;;;;;;1.02;0.63;;;;;;;12.77;46.98;102752.38;5115192;27;20367;-85
2023/03/03 14:03:42;;;;;;;0.10;0.10;;;;;;;12.50;47.55;102743.47;5067363;28;20412;-86
2023/03/03 14:06:15;;;;;;;0.65;0.45;;;;;;;12.38;46.44;102748.75;5047475;28;20453;-84
2023/03/03 14:09:21;;;;;;;0.10;0.10;;;;;;;12.34;46.00;102744.31;5036043;28;20029;-84
2023/03/03 14:12:12;;;;;;;0.10;0.10;;;;;;;12.21;47.15;102752.25;5042921;28;20049;-85
2023/03/03 14:23:02;;;;;;;0.27;0.27;;;;;;;11.60;45.06;102747.44;5142283;27;1162712;-84
2023/03/03 14:25:51;;;;;;;0.20;0.20;;;;;;;11.58;46.56;102744.78;5163939;22;20525;-85
2023/03/03 14:28:21;;;;;;;0.13;0.13;;;;;;;11.54;47.59;102737.69;5100857;28;20028;-86
2023/03/03 14:30:48;;;;;;;1.23;1.13;;;;;;;11.64;48.00;102742.19;5106634;28;20097;-85
2023/03/03 14:36:01;;;;;;;0.10;0.10;;;;;;;11.73;45.83;102728.06;5106137;27;20397;-85
2023/03/03 14:41:14;;;;;;;0.10;0.10;;;;;;;11.67;45.05;102732.47;5113242;27;1175434;-82
2023/03/03 14:43:45;;;;;;;0.10;0.10;;;;;;;11.70;46.49;102727.16;5134744;27;20034;-83
2023/03/03 14:46:35;;;;;;;0.10;0.10;;;;;;;11.79;45.96;102724.56;5135059;27;20031;-84
2023/03/03 14:49:05;;;;;;;1.90;1.80;;;;;;;11.73;45.07;102722.75;5127154;28;20047;-84
2023/03/03 14:51:42;;;;;;;0.30;0.30;;;;;;;11.70;45.81;102721.84;5135463;28;20124;-81
2023/03/03 14:54:33;;;;;;;0.20;0.20;;;;;;;11.63;46.35;102724.47;5147373;27;20031;-83
2023/03/03 14:57:15;;;;;;;0.10;0.10;;;;;;;11.57;47.12;102729.75;5133374;27;20451;-81
2023/03/03 14:59:56;;;;;;;0.10;0.10;;;;;;;11.54;47.51;102726.16;5131226;27;20027;-83